createdAt,value
2022-10-23T00:01:54.601Z,91.33
2022-10-23T00:04:29.566Z,90.79
2022-10-23T00:06:58.434Z,90.91
2022-10-23T00:09:25.389Z,91.74
2022-10-23T00:11:54.994Z,91.30
2022-10-23T00:14:24.970Z,92.48
2022-10-23T00:16:56.390Z,91.85
2022-10-23T00:19:23.249Z,91.73
2022-10-23T00:21:50.097Z,91.70
2022-10-23T00:24:16.904Z,91.46
2022-10-23T00:26:46.405Z,91.27
2022-10-23T00:29:13.186Z,91.91
2022-10-23T00:31:44.598Z,91.38
2022-10-23T00:34:11.555Z,91.46
2022-10-23T00:36:39.424Z,92.15
2022-10-23T00:39:06.885Z,91.13
2022-10-23T00:41:34.050Z,91.23
2022-10-23T00:44:29.664Z,90.21
2022-10-23T00:46:58.222Z,91.36
2022-10-23T00:49:25.608Z,91.75
2022-10-23T00:51:57.693Z,91.81
2022-10-23T00:54:33.299Z,92.26
2022-10-23T00:57:04.024Z,91.90
2022-10-23T00:59:39.013Z,91.60
2022-10-23T01:02:06.577Z,91.93
2022-10-23T01:04:36.562Z,92.88
2022-10-23T01:07:35.677Z,92.26
2022-10-23T01:10:25.296Z,92.03
2022-10-23T01:13:20.226Z,91.72
2022-10-23T01:16:08.235Z,91.94
2022-10-23T01:19:07.598Z,92.18
2022-10-23T01:21:45.633Z,92.71
2022-10-23T01:24:31.396Z,93.14
2022-10-23T01:27:13.124Z,92.78
2022-10-23T01:29:55.604Z,94.12
2022-10-23T01:32:36.538Z,93.29
2022-10-23T01:35:15.506Z,95.48
2022-10-23T01:37:56.454Z,95.52
2022-10-23T01:40:43.513Z,95.40
2022-10-23T01:43:27.132Z,95.12
2022-10-23T01:46:03.317Z,95.41
2022-10-23T01:48:32.151Z,94.40
2022-10-23T01:51:03.765Z,93.46
2022-10-23T01:53:34.578Z,93.48
2022-10-23T01:56:06.493Z,93.20
2022-10-23T01:58:37.569Z,93.17
2022-10-23T02:01:07.775Z,94.92
2022-10-23T02:03:39.347Z,94.96
2022-10-23T02:06:06.533Z,94.21
2022-10-23T02:08:33.569Z,95.09
2022-10-23T02:11:28.795Z,94.77
2022-10-23T02:14:04.498Z,94.16
2022-10-23T02:16:50.056Z,94.47
2022-10-23T02:19:58.056Z,94.06
2022-10-23T02:22:39.188Z,93.32
2022-10-23T02:25:12.790Z,92.99
2022-10-23T02:27:50.817Z,92.26
2022-10-23T02:30:19.523Z,93.31
2022-10-23T02:32:59.681Z,93.67
2022-10-23T02:35:26.804Z,93.65
2022-10-23T02:38:00.308Z,93.43
2022-10-23T02:40:42.225Z,93.39
2022-10-23T02:43:24.716Z,93.64
2022-10-23T02:46:06.735Z,94.21
2022-10-23T02:48:46.015Z,94.79
2022-10-23T02:51:45.752Z,95.05
2022-10-23T02:54:30.337Z,94.83
2022-10-23T02:57:33.331Z,95.76
2022-10-23T03:00:17.101Z,94.55
2022-10-23T03:03:30.391Z,94.60
2022-10-23T03:05:57.270Z,94.10
2022-10-23T03:08:27.194Z,94.20
2022-10-23T03:10:58.641Z,94.60
2022-10-23T03:13:25.941Z,95.12
2022-10-23T03:15:52.776Z,95.39
2022-10-23T03:18:19.570Z,95.85
2022-10-23T03:20:46.359Z,95.81
2022-10-23T03:23:14.017Z,94.03
2022-10-23T03:25:40.885Z,95.07
2022-10-23T03:28:12.369Z,94.78
2022-10-23T03:30:39.205Z,95.06
2022-10-23T03:33:05.987Z,95.11
2022-10-23T03:35:35.384Z,94.08
2022-10-23T03:38:02.283Z,94.01
2022-10-23T03:40:33.649Z,93.27
2022-10-23T03:43:00.417Z,93.91
2022-10-23T03:45:27.455Z,94.16
2022-10-23T03:47:54.331Z,92.63
2022-10-23T03:50:21.418Z,93.33
2022-10-23T03:52:50.598Z,92.54
2022-10-23T03:55:20.460Z,93.23
2022-10-23T03:57:49.479Z,93.75
2022-10-23T04:00:16.917Z,93.32
2022-10-23T04:02:44.210Z,92.96
2022-10-23T04:05:11.778Z,94.13
2022-10-23T04:07:38.577Z,94.66
2022-10-23T04:10:06.433Z,94.81
2022-10-23T04:12:36.910Z,93.88
2022-10-23T04:15:04.650Z,94.07
2022-10-23T04:17:33.983Z,93.91
2022-10-23T04:20:00.791Z,92.53
2022-10-23T04:22:28.578Z,92.01
2022-10-23T04:24:56.213Z,92.37
2022-10-23T04:27:23.272Z,92.54
2022-10-23T04:29:55.500Z,91.79
2022-10-23T04:32:25.135Z,91.68
2022-10-23T04:34:54.176Z,92.29
2022-10-23T04:37:23.073Z,91.92
2022-10-23T04:39:52.841Z,91.06
2022-10-23T04:42:20.327Z,91.09
2022-10-23T04:44:51.845Z,91.48
2022-10-23T04:47:18.862Z,91.98
2022-10-23T04:49:45.653Z,92.43
2022-10-23T04:52:15.019Z,91.96
2022-10-23T04:54:41.849Z,92.34
2022-10-23T04:57:08.718Z,92.36
2022-10-23T04:59:35.615Z,93.20
2022-10-23T05:02:02.606Z,92.41
2022-10-23T05:04:31.633Z,92.79
2022-10-23T05:06:58.515Z,92.80
2022-10-23T05:09:30.132Z,94.79
2022-10-23T05:11:59.449Z,93.88
2022-10-23T05:14:26.231Z,93.36
2022-10-23T05:17:07.383Z,94.31
2022-10-23T05:19:42.652Z,94.50
2022-10-23T05:22:11.135Z,95.31
2022-10-23T05:24:40.358Z,94.29
2022-10-23T05:27:07.256Z,94.99
2022-10-23T05:29:34.036Z,94.34
2022-10-23T05:32:05.585Z,94.06
2022-10-23T05:34:36.814Z,93.36
2022-10-23T05:37:09.592Z,93.19
2022-10-23T05:39:36.712Z,94.20
2022-10-23T05:42:03.732Z,94.24
2022-10-23T05:44:33.076Z,95.41
2022-10-23T05:47:02.822Z,95.39
2022-10-23T05:49:31.882Z,96.05
2022-10-23T05:51:58.724Z,96.44
2022-10-23T05:54:25.599Z,94.61
2022-10-23T05:56:52.429Z,92.71
2022-10-23T05:59:23.768Z,92.28
2022-10-23T06:01:50.743Z,92.15
2022-10-23T06:04:20.007Z,92.06
2022-10-23T06:06:49.575Z,93.24
2022-10-23T06:09:19.030Z,93.26
2022-10-23T06:11:51.383Z,92.78
2022-10-23T06:14:18.461Z,92.81
2022-10-23T06:16:47.607Z,93.36
2022-10-23T06:19:14.390Z,93.45
2022-10-23T06:21:45.880Z,92.90
2022-10-23T06:24:12.731Z,92.39
2022-10-23T06:26:39.515Z,92.98
2022-10-23T06:29:06.368Z,92.06
2022-10-23T06:31:35.764Z,91.28
2022-10-23T06:34:06.005Z,90.70
2022-10-23T06:36:37.893Z,91.26
2022-10-23T06:39:05.403Z,92.08
2022-10-23T06:41:41.954Z,91.48
2022-10-23T06:44:11.480Z,90.83
2022-10-23T06:46:40.823Z,89.61
2022-10-23T06:49:07.629Z,88.79
2022-10-23T06:51:34.453Z,87.66
2022-10-23T06:54:03.461Z,87.37
2022-10-23T06:56:32.596Z,86.99
2022-10-23T06:58:59.389Z,86.31
2022-10-23T07:01:26.386Z,86.60
2022-10-23T07:03:55.489Z,86.15
2022-10-23T07:06:22.350Z,85.54
2022-10-23T07:08:49.634Z,84.91
2022-10-23T07:11:16.492Z,82.92
2022-10-23T07:13:46.574Z,82.07
2022-10-23T07:16:20.270Z,78.79
2022-10-23T07:18:48.951Z,72.50
2022-10-23T07:21:18.118Z,68.76
2022-10-23T07:23:44.928Z,66.58
2022-10-23T07:26:15.630Z,64.28
2022-10-23T07:28:44.774Z,63.19
2022-10-23T07:31:14.549Z,60.74
2022-10-23T07:33:44.462Z,61.02
2022-10-23T07:36:11.324Z,60.72
2022-10-23T07:38:38.172Z,62.34
2022-10-23T07:41:08.915Z,64.17
2022-10-23T07:43:40.954Z,62.38
2022-10-23T07:46:10.949Z,61.41
2022-10-23T07:48:38.772Z,63.22
2022-10-23T07:51:11.330Z,62.05
2022-10-23T07:53:40.932Z,58.52
2022-10-23T07:56:22.797Z,56.43
2022-10-23T07:58:56.652Z,56.07
2022-10-23T08:01:39.314Z,51.80
2022-10-23T08:04:06.419Z,49.21
2022-10-23T08:06:35.942Z,46.79
2022-10-23T08:09:06.298Z,45.58
2022-10-23T08:11:35.742Z,44.11
2022-10-23T08:14:09.922Z,42.28
2022-10-23T08:16:38.387Z,41.90
2022-10-23T08:19:09.133Z,40.37
2022-10-23T08:21:38.782Z,38.79
2022-10-23T08:24:13.706Z,38.75
2022-10-23T08:26:40.583Z,39.24
2022-10-23T08:29:09.479Z,37.86
2022-10-23T08:31:40.851Z,38.13
2022-10-23T08:34:10.394Z,38.14
2022-10-23T08:36:39.157Z,38.81
2022-10-23T08:39:06.845Z,38.58
2022-10-23T08:41:45.385Z,39.21
2022-10-23T08:44:27.115Z,40.24
2022-10-23T08:47:12.575Z,41.80
2022-10-23T08:49:51.185Z,42.92
2022-10-23T08:52:27.861Z,44.42
2022-10-23T08:55:25.090Z,46.48
2022-10-23T08:58:17.051Z,45.73
2022-10-23T09:00:46.756Z,43.91
2022-10-23T09:03:14.112Z,42.92
2022-10-23T09:06:05.904Z,43.86
2022-10-23T09:09:05.592Z,46.22
2022-10-23T09:11:57.336Z,48.22
2022-10-23T09:14:48.178Z,50.73
2022-10-23T09:17:32.825Z,51.96
2022-10-23T09:20:34.636Z,52.10
2022-10-23T09:23:13.820Z,50.08
2022-10-23T09:25:46.378Z,49.14
2022-10-23T09:28:25.927Z,48.45
2022-10-23T09:31:06.634Z,50.71
2022-10-23T09:33:37.221Z,53.51
2022-10-23T09:36:08.344Z,54.39
2022-10-23T09:38:37.715Z,54.18
2022-10-23T09:41:20.429Z,53.75
2022-10-23T09:43:48.207Z,53.77
2022-10-23T09:46:15.074Z,53.48
2022-10-23T09:48:44.670Z,53.60
2022-10-23T09:51:21.239Z,54.69
2022-10-23T09:53:57.713Z,57.65
2022-10-23T09:56:34.650Z,57.28
2022-10-23T09:59:13.463Z,58.71
2022-10-23T10:01:47.824Z,60.22
2022-10-23T10:04:14.836Z,59.56
2022-10-23T10:06:42.655Z,59.26
2022-10-23T10:09:18.996Z,60.68
2022-10-23T10:11:56.568Z,62.18
2022-10-23T10:15:29.946Z,63.78
2022-10-23T10:18:17.174Z,64.74
2022-10-23T10:20:58.053Z,65.30
2022-10-23T10:24:00.494Z,63.81
2022-10-23T10:26:44.525Z,62.25
2022-10-23T10:29:41.547Z,62.17
2022-10-23T10:32:32.216Z,62.26
2022-10-23T10:35:37.175Z,60.68
2022-10-23T10:38:31.777Z,59.33
2022-10-23T10:41:19.726Z,59.08
2022-10-23T10:44:24.362Z,58.78
2022-10-23T10:47:33.822Z,61.01
2022-10-23T10:50:25.513Z,59.03
2022-10-23T10:53:04.443Z,56.87
2022-10-23T10:55:41.342Z,55.95
2022-10-23T10:58:40.509Z,54.62
2022-10-23T11:01:30.883Z,52.93
2022-10-23T11:04:15.396Z,53.20
2022-10-23T11:06:46.370Z,51.83
2022-10-23T11:09:32.172Z,51.43
2022-10-23T11:11:59.250Z,48.28
2022-10-23T11:14:29.736Z,49.33
2022-10-23T11:17:20.396Z,49.07
2022-10-23T11:20:07.832Z,50.00
2022-10-23T11:22:46.574Z,52.30
2022-10-23T11:26:02.984Z,52.68
2022-10-23T11:28:48.258Z,55.57
2022-10-23T11:31:52.580Z,58.10
2022-10-23T11:34:31.999Z,59.87
2022-10-23T11:37:01.643Z,60.10
2022-10-23T11:39:31.675Z,60.28
2022-10-23T11:42:04.531Z,60.18
2022-10-23T11:44:48.287Z,59.97
2022-10-23T11:47:40.795Z,62.94
2022-10-23T11:50:07.563Z,63.21
2022-10-23T11:53:20.926Z,62.80
2022-10-23T11:56:20.384Z,62.32
2022-10-23T11:58:49.415Z,60.78
2022-10-23T12:01:45.577Z,59.93
2022-10-23T12:04:15.662Z,59.58
2022-10-23T12:06:54.118Z,60.94
2022-10-23T12:09:31.655Z,61.55
2022-10-23T12:12:34.193Z,60.50
2022-10-23T12:15:09.874Z,58.61
2022-10-23T12:17:42.147Z,57.17
2022-10-23T12:20:12.092Z,57.52
2022-10-23T12:22:56.727Z,57.37
2022-10-23T12:26:00.593Z,57.83
2022-10-23T12:29:07.434Z,60.83
2022-10-23T12:32:24.003Z,59.65
2022-10-23T12:35:18.168Z,57.66
2022-10-23T12:37:58.273Z,58.12
2022-10-23T12:40:30.059Z,56.96
2022-10-23T12:43:00.583Z,57.20
2022-10-23T12:45:43.183Z,56.41
2022-10-23T12:48:21.455Z,55.88
2022-10-23T12:50:51.139Z,55.92
2022-10-23T12:53:23.333Z,57.41
2022-10-23T12:58:34.957Z,59.62
2022-10-23T13:01:05.234Z,57.60
2022-10-23T13:03:34.276Z,58.06
2022-10-23T13:06:04.650Z,58.77
2022-10-23T13:08:44.656Z,56.91
2022-10-23T13:11:21.289Z,56.95
2022-10-23T13:13:49.393Z,59.30
2022-10-23T13:16:29.134Z,59.48
2022-10-23T13:18:58.177Z,61.27
2022-10-23T13:21:30.104Z,62.15
2022-10-23T13:23:59.853Z,64.00
2022-10-23T13:26:45.130Z,64.62
2022-10-23T13:29:44.225Z,65.99
2022-10-23T13:32:31.366Z,66.51
2022-10-23T13:35:10.105Z,67.73
2022-10-23T13:37:48.314Z,67.24
2022-10-23T13:40:33.084Z,68.23
2022-10-23T13:43:00.129Z,68.98
2022-10-23T13:45:27.385Z,68.95
2022-10-23T13:47:57.477Z,67.28
2022-10-23T13:50:24.347Z,67.29
2022-10-23T13:52:53.730Z,67.85
2022-10-23T13:55:26.920Z,67.21
2022-10-23T13:57:53.797Z,67.08
2022-10-23T14:00:20.743Z,68.04
2022-10-23T14:02:47.911Z,69.22
2022-10-23T14:05:19.318Z,69.36
2022-10-23T14:07:46.645Z,70.90
2022-10-23T14:10:13.629Z,71.78
2022-10-23T14:12:46.804Z,72.07
2022-10-23T14:15:16.464Z,72.12
2022-10-23T14:17:46.213Z,71.82
2022-10-23T14:20:13.258Z,72.72
2022-10-23T14:22:42.798Z,72.26
2022-10-23T14:25:10.125Z,73.00
2022-10-23T14:27:36.979Z,73.83
2022-10-23T14:30:05.046Z,73.76
2022-10-23T14:32:32.184Z,73.78
2022-10-23T14:35:03.759Z,74.38
2022-10-23T14:37:31.652Z,75.18
2022-10-23T14:39:58.860Z,77.10
2022-10-23T14:42:34.001Z,76.82
2022-10-23T14:45:04.708Z,76.14
2022-10-23T14:47:32.341Z,76.91
2022-10-23T14:50:01.519Z,76.85
2022-10-23T14:52:30.718Z,78.26
2022-10-23T14:55:01.529Z,77.56
2022-10-23T14:57:30.864Z,78.23
2022-10-23T14:59:57.715Z,77.91
2022-10-23T15:02:24.544Z,76.78
2022-10-23T15:04:51.377Z,78.68
2022-10-23T15:07:18.214Z,78.10
2022-10-23T15:09:47.303Z,77.65
2022-10-23T15:12:14.092Z,78.53
2022-10-23T15:14:40.923Z,78.44
2022-10-23T15:17:15.389Z,78.41
2022-10-23T15:19:42.692Z,78.93
2022-10-23T15:22:09.669Z,78.64
2022-10-23T15:24:36.601Z,78.05
2022-10-23T15:29:39.587Z,77.68
2022-10-23T15:32:07.776Z,78.09
2022-10-23T15:34:37.630Z,79.09
2022-10-23T15:37:04.541Z,78.76
2022-10-23T15:39:38.568Z,78.05
2022-10-23T15:42:08.473Z,79.23
2022-10-23T15:44:35.343Z,80.81
2022-10-23T15:47:05.214Z,80.98
2022-10-23T15:49:32.686Z,81.53
2022-10-23T15:52:03.373Z,81.93
2022-10-23T15:54:32.799Z,81.24
2022-10-23T15:57:01.453Z,82.14
2022-10-23T15:59:32.679Z,83.15
2022-10-23T16:01:59.745Z,83.13
2022-10-23T16:04:29.130Z,82.96
2022-10-23T16:06:58.485Z,83.64
2022-10-23T16:09:27.891Z,83.48
2022-10-23T16:11:59.387Z,84.24
2022-10-23T16:14:26.234Z,83.15
2022-10-23T16:16:57.873Z,84.26
2022-10-23T16:19:27.177Z,85.44
2022-10-23T16:22:01.085Z,86.92
2022-10-23T16:24:27.944Z,87.25
2022-10-23T16:26:57.461Z,86.80
2022-10-23T16:29:25.838Z,86.41
2022-10-23T16:31:54.192Z,85.90
2022-10-23T16:34:23.735Z,87.39
2022-10-23T16:36:53.089Z,86.61
2022-10-23T16:39:20.679Z,86.41
2022-10-23T16:41:53.074Z,86.30
2022-10-23T16:44:22.896Z,85.77
2022-10-23T16:46:54.414Z,85.74
2022-10-23T16:49:21.229Z,86.00
2022-10-23T16:51:48.074Z,85.10
2022-10-23T16:54:17.943Z,84.84
2022-10-23T16:56:48.368Z,84.61
2022-10-23T16:59:15.510Z,84.07
2022-10-23T17:01:42.521Z,83.95
2022-10-23T17:04:09.522Z,84.00
2022-10-23T17:06:36.934Z,84.24
2022-10-23T17:09:08.549Z,84.38
2022-10-23T17:11:39.550Z,84.82
2022-10-23T17:14:15.904Z,84.39
2022-10-23T17:16:46.993Z,85.05
2022-10-23T17:19:44.677Z,86.10
2022-10-23T17:22:10.685Z,85.67
2022-10-23T17:24:42.259Z,85.34
2022-10-23T17:27:11.715Z,84.68
2022-10-23T17:29:40.930Z,85.16
2022-10-23T17:32:10.150Z,84.91
2022-10-23T17:34:37.049Z,85.14
2022-10-23T17:37:04.004Z,85.82
2022-10-23T17:39:33.172Z,85.39
2022-10-23T17:42:00.024Z,86.89
2022-10-23T17:44:26.910Z,85.66
2022-10-23T17:46:55.063Z,85.35
2022-10-23T17:49:25.930Z,85.67
2022-10-23T17:51:56.402Z,85.56
2022-10-23T17:54:25.689Z,86.10
2022-10-23T17:56:55.436Z,85.95
2022-10-23T17:59:27.428Z,85.82
2022-10-23T18:02:00.065Z,87.99
2022-10-23T18:04:26.988Z,88.48
2022-10-23T18:06:56.373Z,88.38
2022-10-23T18:09:24.105Z,89.69
2022-10-23T18:11:51.770Z,89.21
2022-10-23T18:14:25.144Z,88.57
2022-10-23T18:16:56.903Z,89.58
2022-10-23T18:19:23.758Z,89.31
2022-10-23T18:21:50.664Z,89.05
2022-10-23T18:24:18.471Z,88.95
2022-10-23T18:26:48.374Z,90.06
2022-10-23T18:29:20.713Z,90.58
2022-10-23T18:31:50.728Z,90.28
2022-10-23T18:34:26.878Z,90.58
2022-10-23T18:36:57.056Z,90.98
2022-10-23T18:39:27.209Z,91.19
2022-10-23T18:41:57.670Z,90.42
2022-10-23T18:44:29.190Z,89.88
2022-10-23T18:47:00.900Z,89.39
2022-10-23T18:49:30.594Z,89.44
2022-10-23T18:51:58.526Z,88.29
2022-10-23T18:54:27.678Z,87.28
2022-10-23T18:56:59.127Z,87.38
2022-10-23T18:59:28.484Z,87.60
2022-10-23T19:01:55.585Z,88.70
2022-10-23T19:04:22.589Z,89.87
2022-10-23T19:06:50.666Z,90.56
2022-10-23T19:09:20.503Z,89.87
2022-10-23T19:11:52.168Z,88.97
2022-10-23T19:14:19.039Z,92.25
2022-10-23T19:16:45.795Z,91.79
2022-10-23T19:19:26.704Z,90.82
2022-10-23T19:21:54.680Z,90.80
2022-10-23T19:24:57.092Z,90.79
2022-10-23T19:27:26.047Z,90.66
2022-10-23T19:29:54.502Z,89.80
2022-10-23T19:32:23.614Z,89.71
2022-10-23T19:34:50.490Z,89.92
2022-10-23T19:37:19.854Z,90.61
2022-10-23T19:39:46.749Z,91.15
2022-10-23T19:42:15.710Z,91.34
2022-10-23T19:44:45.044Z,91.42
2022-10-23T19:47:14.890Z,91.95
2022-10-23T19:49:41.710Z,91.60
2022-10-23T19:52:11.084Z,90.36
2022-10-23T19:54:41.519Z,90.63
2022-10-23T19:57:08.389Z,91.33
2022-10-23T19:59:35.233Z,91.38
2022-10-23T20:02:04.847Z,91.35
2022-10-23T20:04:31.915Z,90.69
2022-10-23T20:06:58.811Z,90.02
2022-10-23T20:09:28.178Z,89.38
2022-10-23T20:11:58.123Z,89.86
2022-10-23T20:14:24.930Z,89.99
2022-10-23T20:16:55.673Z,90.25
2022-10-23T20:19:22.919Z,90.25
2022-10-23T20:21:50.322Z,89.03
2022-10-23T20:24:19.598Z,89.75
2022-10-23T20:26:50.748Z,89.44
2022-10-23T20:29:21.029Z,89.75
2022-10-23T20:31:48.654Z,88.82
2022-10-23T20:34:15.477Z,88.17
2022-10-23T20:36:48.040Z,87.99
2022-10-23T20:39:19.419Z,88.24
2022-10-23T20:41:46.663Z,87.39
2022-10-23T20:46:49.137Z,88.32
2022-10-23T20:49:22.129Z,88.42
2022-10-23T20:51:55.639Z,88.30
2022-10-23T20:54:29.048Z,88.10
2022-10-23T20:56:57.049Z,89.05
2022-10-23T20:59:26.505Z,89.04
2022-10-23T21:01:57.298Z,89.07
2022-10-23T21:04:27.553Z,88.62
2022-10-23T21:07:09.961Z,89.94
2022-10-23T21:09:39.992Z,90.54
2022-10-23T21:12:08.186Z,91.88
2022-10-23T21:14:36.226Z,92.11
2022-10-23T21:17:03.132Z,92.17
2022-10-23T21:19:29.964Z,91.98
2022-10-23T21:21:57.333Z,91.07
2022-10-23T21:24:24.594Z,90.90
2022-10-23T21:26:55.916Z,91.74
2022-10-23T21:29:22.713Z,92.68
2022-10-23T21:31:59.339Z,93.03
2022-10-23T21:34:29.914Z,92.72
2022-10-23T21:37:17.893Z,93.49
2022-10-23T21:39:48.158Z,94.61
2022-10-23T21:42:17.711Z,94.41
2022-10-23T21:44:44.697Z,93.19
2022-10-23T21:47:16.854Z,92.38
2022-10-23T21:49:46.086Z,91.67
2022-10-23T21:52:15.043Z,91.47
2022-10-23T21:54:50.966Z,91.39
2022-10-23T21:57:17.772Z,91.51
2022-10-23T21:59:44.615Z,91.34
2022-10-23T22:02:14.717Z,91.73
2022-10-23T22:04:44.332Z,93.40
2022-10-23T22:07:14.898Z,96.16
2022-10-23T22:09:42.615Z,99.12
2022-10-23T22:12:12.549Z,99.72
2022-10-23T22:14:42.519Z,100.00
2022-10-23T22:17:09.376Z,100.00
2022-10-23T22:19:36.190Z,100.00
2022-10-23T22:22:05.540Z,100.00
2022-10-23T22:24:35.314Z,100.00
2022-10-23T22:27:02.128Z,100.00
2022-10-23T22:29:29.864Z,100.00
2022-10-23T22:31:57.674Z,100.00
2022-10-23T22:37:23.358Z,100.00
2022-10-23T22:39:52.021Z,100.00
2022-10-23T22:42:22.564Z,100.00
2022-10-23T22:44:51.438Z,100.00
2022-10-23T22:47:20.651Z,100.00
2022-10-23T22:49:52.093Z,100.00
2022-10-23T22:52:18.878Z,100.00
2022-10-23T22:54:45.800Z,100.00
2022-10-23T22:57:12.669Z,100.00
2022-10-23T22:59:39.544Z,100.00
2022-10-23T23:02:06.388Z,100.00
2022-10-23T23:04:38.354Z,100.00
2022-10-23T23:07:11.636Z,100.00
2022-10-23T23:09:41.451Z,100.00
2022-10-23T23:12:10.863Z,100.00
2022-10-23T23:14:38.002Z,100.00
2022-10-23T23:17:05.992Z,100.00
2022-10-23T23:19:33.102Z,100.00
2022-10-23T23:22:02.920Z,100.00
2022-10-23T23:24:34.806Z,100.00
2022-10-23T23:27:01.643Z,100.00
2022-10-23T23:29:31.552Z,100.00
2022-10-23T23:32:06.023Z,100.00
2022-10-23T23:34:35.003Z,100.00
2022-10-23T23:37:04.823Z,100.00
2022-10-23T23:39:31.676Z,100.00
2022-10-23T23:41:58.512Z,100.00
2022-10-23T23:44:25.484Z,100.00
2022-10-23T23:46:55.917Z,100.00
2022-10-23T23:49:26.369Z,100.00
2022-10-23T23:51:53.287Z,100.00
2022-10-23T23:54:20.121Z,100.00
2022-10-23T23:56:47.041Z,100.00
2022-10-23T23:59:13.953Z,100.00
